sensor_id;sensor_type;location;lat;lon;timestamp;pressure;altitude;pressure_sealevel;temperature;humidity
8641;BME280;4358;42.100;25.222;2022-08-19T00:00:51;99512.53;;;27.16;84.95
8641;BME280;4358;42.100;25.222;2022-08-19T00:03:18;99511.91;;;27.14;84.74
8641;BME280;4358;42.100;25.222;2022-08-19T00:05:44;99516.34;;;27.09;85.15
8641;BME280;4358;42.100;25.222;2022-08-19T00:08:11;99516.16;;;27.04;85.21
8641;BME280;4358;42.100;25.222;2022-08-19T00:10:40;99514.69;;;27.01;86.25
8641;BME280;4358;42.100;25.222;2022-08-19T00:13:07;99512.88;;;26.88;86.74
8641;BME280;4358;42.100;25.222;2022-08-19T00:15:35;99508.94;;;26.71;87.14
8641;BME280;4358;42.100;25.222;2022-08-19T00:18:02;99508.56;;;26.61;87.81
8641;BME280;4358;42.100;25.222;2022-08-19T00:20:29;99515.78;;;26.42;88.95
8641;BME280;4358;42.100;25.222;2022-08-19T00:22:56;99515.81;;;26.23;89.45
8641;BME280;4358;42.100;25.222;2022-08-19T00:25:23;99521.25;;;26.16;90.33
8641;BME280;4358;42.100;25.222;2022-08-19T00:27:51;99521.66;;;26.13;90.52
8641;BME280;4358;42.100;25.222;2022-08-19T00:30:18;99517.88;;;26.07;90.59
8641;BME280;4358;42.100;25.222;2022-08-19T00:32:45;99511.66;;;26.00;90.68
8641;BME280;4358;42.100;25.222;2022-08-19T00:35:12;99520.00;;;26.05;90.18
8641;BME280;4358;42.100;25.222;2022-08-19T00:37:39;99522.53;;;26.00;90.20
8641;BME280;4358;42.100;25.222;2022-08-19T00:40:11;99516.47;;;25.85;90.88
8641;BME280;4358;42.100;25.222;2022-08-19T00:42:39;99509.56;;;25.76;91.03
8641;BME280;4358;42.100;25.222;2022-08-19T00:45:13;99513.31;;;25.75;90.85
8641;BME280;4358;42.100;25.222;2022-08-19T00:47:40;99511.47;;;25.69;91.08
8641;BME280;4358;42.100;25.222;2022-08-19T00:50:08;99508.75;;;25.62;90.79
8641;BME280;4358;42.100;25.222;2022-08-19T00:52:38;99500.59;;;25.62;90.44
8641;BME280;4358;42.100;25.222;2022-08-19T00:55:08;99501.59;;;25.55;91.21
8641;BME280;4358;42.100;25.222;2022-08-19T00:57:41;99506.59;;;25.45;91.86
8641;BME280;4358;42.100;25.222;2022-08-19T01:00:15;99507.88;;;25.42;92.39
8641;BME280;4358;42.100;25.222;2022-08-19T01:02:43;99505.75;;;25.31;93.13
8641;BME280;4358;42.100;25.222;2022-08-19T01:05:13;99506.56;;;25.18;94.19
8641;BME280;4358;42.100;25.222;2022-08-19T01:07:41;99519.69;;;25.08;94.77
8641;BME280;4358;42.100;25.222;2022-08-19T01:10:10;99498.72;;;24.82;95.30
8641;BME280;4358;42.100;25.222;2022-08-19T01:12:38;99509.56;;;24.82;95.96
8641;BME280;4358;42.100;25.222;2022-08-19T01:15:08;99503.94;;;24.84;96.11
8641;BME280;4358;42.100;25.222;2022-08-19T01:17:38;99513.97;;;24.83;96.74
8641;BME280;4358;42.100;25.222;2022-08-19T01:20:09;99503.03;;;24.64;97.54
8641;BME280;4358;42.100;25.222;2022-08-19T01:22:43;99500.09;;;24.59;97.98
8641;BME280;4358;42.100;25.222;2022-08-19T01:25:12;99501.38;;;24.63;97.90
8641;BME280;4358;42.100;25.222;2022-08-19T01:27:40;99506.00;;;24.69;97.86
8641;BME280;4358;42.100;25.222;2022-08-19T01:30:09;99500.56;;;24.69;98.16
8641;BME280;4358;42.100;25.222;2022-08-19T01:32:36;99505.53;;;24.65;98.51
8641;BME280;4358;42.100;25.222;2022-08-19T01:35:04;99506.16;;;24.61;98.76
8641;BME280;4358;42.100;25.222;2022-08-19T01:37:43;99512.84;;;24.58;99.08
8641;BME280;4358;42.100;25.222;2022-08-19T01:40:10;99512.97;;;24.43;99.72
8641;BME280;4358;42.100;25.222;2022-08-19T01:42:37;99511.66;;;24.33;100.00
8641;BME280;4358;42.100;25.222;2022-08-19T01:45:06;99523.69;;;24.17;100.00
8641;BME280;4358;42.100;25.222;2022-08-19T01:47:33;99528.16;;;24.10;100.00
8641;BME280;4358;42.100;25.222;2022-08-19T01:50:00;99525.63;;;24.02;100.00
8641;BME280;4358;42.100;25.222;2022-08-19T01:52:27;99519.59;;;23.79;100.00
8641;BME280;4358;42.100;25.222;2022-08-19T01:54:56;99527.94;;;23.77;100.00
8641;BME280;4358;42.100;25.222;2022-08-19T01:57:23;99513.28;;;23.72;100.00
8641;BME280;4358;42.100;25.222;2022-08-19T01:59:49;99519.75;;;23.71;100.00
8641;BME280;4358;42.100;25.222;2022-08-19T02:02:17;99521.41;;;23.72;100.00
8641;BME280;4358;42.100;25.222;2022-08-19T02:04:43;99526.22;;;23.70;100.00
8641;BME280;4358;42.100;25.222;2022-08-19T02:07:11;99525.50;;;23.61;100.00
8641;BME280;4358;42.100;25.222;2022-08-19T02:09:38;99511.38;;;23.44;100.00
8641;BME280;4358;42.100;25.222;2022-08-19T02:12:07;99527.63;;;23.44;100.00
8641;BME280;4358;42.100;25.222;2022-08-19T02:14:34;99520.38;;;23.30;100.00
8641;BME280;4358;42.100;25.222;2022-08-19T02:17:03;99535.50;;;23.39;100.00
8641;BME280;4358;42.100;25.222;2022-08-19T02:19:30;99534.06;;;23.43;100.00
8641;BME280;4358;42.100;25.222;2022-08-19T02:21:58;99525.56;;;23.46;100.00
8641;BME280;4358;42.100;25.222;2022-08-19T02:24:25;99546.97;;;23.62;100.00
8641;BME280;4358;42.100;25.222;2022-08-19T02:26:52;99550.19;;;23.73;100.00
8641;BME280;4358;42.100;25.222;2022-08-19T02:29:21;99551.09;;;23.80;100.00
8641;BME280;4358;42.100;25.222;2022-08-19T02:31:48;99548.81;;;23.83;100.00
8641;BME280;4358;42.100;25.222;2022-08-19T02:34:15;99547.59;;;23.86;100.00
8641;BME280;4358;42.100;25.222;2022-08-19T02:36:42;99547.44;;;23.94;100.00
8641;BME280;4358;42.100;25.222;2022-08-19T02:39:09;99563.94;;;23.99;100.00
8641;BME280;4358;42.100;25.222;2022-08-19T02:41:35;99548.97;;;24.03;99.98
8641;BME280;4358;42.100;25.222;2022-08-19T02:44:03;99548.97;;;24.03;100.00
8641;BME280;4358;42.100;25.222;2022-08-19T02:46:32;99553.91;;;23.93;99.87
8641;BME280;4358;42.100;25.222;2022-08-19T02:49:03;99562.53;;;23.75;100.00
8641;BME280;4358;42.100;25.222;2022-08-19T02:51:33;99562.06;;;23.72;100.00
8641;BME280;4358;42.100;25.222;2022-08-19T02:54:01;99567.94;;;23.75;100.00
8641;BME280;4358;42.100;25.222;2022-08-19T02:56:28;99571.25;;;23.71;100.00
8641;BME280;4358;42.100;25.222;2022-08-19T02:58:56;99575.22;;;23.75;100.00
8641;BME280;4358;42.100;25.222;2022-08-19T03:01:28;99579.16;;;23.72;100.00
8641;BME280;4358;42.100;25.222;2022-08-19T03:03:58;99573.28;;;23.69;100.00
8641;BME280;4358;42.100;25.222;2022-08-19T03:06:26;99578.72;;;23.69;100.00
8641;BME280;4358;42.100;25.222;2022-08-19T03:08:54;99574.47;;;23.59;100.00
8641;BME280;4358;42.100;25.222;2022-08-19T03:11:25;99582.34;;;23.54;100.00
8641;BME280;4358;42.100;25.222;2022-08-19T03:13:52;99577.69;;;23.48;100.00
8641;BME280;4358;42.100;25.222;2022-08-19T03:16:21;99585.81;;;23.48;100.00
8641;BME280;4358;42.100;25.222;2022-08-19T03:18:48;99583.69;;;23.29;100.00
8641;BME280;4358;42.100;25.222;2022-08-19T03:21:18;99578.59;;;23.19;100.00
8641;BME280;4358;42.100;25.222;2022-08-19T03:23:45;99593.94;;;23.12;100.00
8641;BME280;4358;42.100;25.222;2022-08-19T03:26:12;99588.00;;;23.02;100.00
8641;BME280;4358;42.100;25.222;2022-08-19T03:28:40;99600.03;;;23.00;100.00
8641;BME280;4358;42.100;25.222;2022-08-19T03:31:10;99598.53;;;22.83;100.00
8641;BME280;4358;42.100;25.222;2022-08-19T03:33:40;99583.53;;;22.65;100.00
8641;BME280;4358;42.100;25.222;2022-08-19T03:36:09;99604.25;;;22.73;100.00
8641;BME280;4358;42.100;25.222;2022-08-19T03:38:40;99609.06;;;22.63;100.00
8641;BME280;4358;42.100;25.222;2022-08-19T03:41:09;99612.72;;;22.55;100.00
8641;BME280;4358;42.100;25.222;2022-08-19T03:43:37;99614.78;;;22.53;100.00
8641;BME280;4358;42.100;25.222;2022-08-19T03:46:06;99612.63;;;22.49;100.00
8641;BME280;4358;42.100;25.222;2022-08-19T03:48:34;99612.53;;;22.42;100.00
8641;BME280;4358;42.100;25.222;2022-08-19T03:51:02;99613.19;;;22.29;100.00
8641;BME280;4358;42.100;25.222;2022-08-19T03:53:31;99601.88;;;22.26;100.00
8641;BME280;4358;42.100;25.222;2022-08-19T03:56:00;99616.63;;;22.38;100.00
8641;BME280;4358;42.100;25.222;2022-08-19T03:58:29;99615.69;;;22.31;100.00
8641;BME280;4358;42.100;25.222;2022-08-19T04:00:56;99613.25;;;22.36;100.00
8641;BME280;4358;42.100;25.222;2022-08-19T04:03:24;99612.41;;;22.35;100.00
8641;BME280;4358;42.100;25.222;2022-08-19T04:05:52;99611.50;;;22.28;100.00
8641;BME280;4358;42.100;25.222;2022-08-19T04:08:20;99613.53;;;22.26;100.00
8641;BME280;4358;42.100;25.222;2022-08-19T04:10:48;99597.22;;;22.20;100.00
8641;BME280;4358;42.100;25.222;2022-08-19T04:13:17;99607.09;;;22.13;100.00
8641;BME280;4358;42.100;25.222;2022-08-19T04:15:45;99614.75;;;22.24;100.00
8641;BME280;4358;42.100;25.222;2022-08-19T04:18:13;99620.44;;;22.29;100.00
8641;BME280;4358;42.100;25.222;2022-08-19T04:20:45;99626.50;;;22.31;100.00
8641;BME280;4358;42.100;25.222;2022-08-19T04:23:13;99614.94;;;22.37;100.00
8641;BME280;4358;42.100;25.222;2022-08-19T04:25:42;99604.88;;;22.31;100.00
8641;BME280;4358;42.100;25.222;2022-08-19T04:28:11;99611.22;;;22.38;100.00
8641;BME280;4358;42.100;25.222;2022-08-19T04:30:42;99624.63;;;22.46;100.00
8641;BME280;4358;42.100;25.222;2022-08-19T04:33:09;99601.88;;;22.40;100.00
8641;BME280;4358;42.100;25.222;2022-08-19T04:35:38;99623.16;;;22.58;100.00
8641;BME280;4358;42.100;25.222;2022-08-19T04:38:05;99622.84;;;22.76;100.00
8641;BME280;4358;42.100;25.222;2022-08-19T04:40:32;99617.41;;;22.91;100.00
8641;BME280;4358;42.100;25.222;2022-08-19T04:43:17;99613.91;;;23.11;100.00
8641;BME280;4358;42.100;25.222;2022-08-19T04:45:45;99612.66;;;23.29;100.00
8641;BME280;4358;42.100;25.222;2022-08-19T04:48:12;99614.28;;;23.44;100.00
8641;BME280;4358;42.100;25.222;2022-08-19T04:50:42;99601.03;;;23.49;100.00
8641;BME280;4358;42.100;25.222;2022-08-19T04:53:09;99611.63;;;23.66;100.00
8641;BME280;4358;42.100;25.222;2022-08-19T04:55:39;99610.47;;;23.75;100.00
8641;BME280;4358;42.100;25.222;2022-08-19T04:58:06;99610.31;;;23.83;100.00
8641;BME280;4358;42.100;25.222;2022-08-19T05:00:33;99609.66;;;24.02;100.00
8641;BME280;4358;42.100;25.222;2022-08-19T05:03:01;99613.59;;;24.21;100.00
8641;BME280;4358;42.100;25.222;2022-08-19T05:05:28;99618.53;;;24.38;100.00
8641;BME280;4358;42.100;25.222;2022-08-19T05:07:57;99616.13;;;24.57;100.00
8641;BME280;4358;42.100;25.222;2022-08-19T05:10:24;99622.91;;;24.74;100.00
8641;BME280;4358;42.100;25.222;2022-08-19T05:12:51;99615.50;;;24.89;100.00
8641;BME280;4358;42.100;25.222;2022-08-19T05:15:18;99596.97;;;24.99;98.91
8641;BME280;4358;42.100;25.222;2022-08-19T05:17:45;99609.56;;;25.20;97.69
8641;BME280;4358;42.100;25.222;2022-08-19T05:20:27;99612.34;;;25.33;96.63
8641;BME280;4358;42.100;25.222;2022-08-19T05:23:12;99615.69;;;25.42;95.20
8641;BME280;4358;42.100;25.222;2022-08-19T05:25:42;99623.69;;;25.56;94.48
8641;BME280;4358;42.100;25.222;2022-08-19T05:28:10;99615.78;;;25.68;94.55
8641;BME280;4358;42.100;25.222;2022-08-19T05:30:37;99619.13;;;25.83;94.66
8641;BME280;4358;42.100;25.222;2022-08-19T05:33:06;99613.69;;;25.96;93.64
8641;BME280;4358;42.100;25.222;2022-08-19T05:35:37;99623.75;;;26.15;93.50
8641;BME280;4358;42.100;25.222;2022-08-19T05:38:05;99626.69;;;26.34;92.10
8641;BME280;4358;42.100;25.222;2022-08-19T05:40:33;99626.69;;;26.47;91.59
8641;BME280;4358;42.100;25.222;2022-08-19T05:43:01;99626.44;;;26.55;91.67
8641;BME280;4358;42.100;25.222;2022-08-19T05:45:28;99622.44;;;26.71;91.33
8641;BME280;4358;42.100;25.222;2022-08-19T05:47:55;99616.34;;;26.88;90.76
8641;BME280;4358;42.100;25.222;2022-08-19T05:50:22;99610.44;;;27.05;89.42
8641;BME280;4358;42.100;25.222;2022-08-19T05:52:52;99616.44;;;27.20;88.96
8641;BME280;4358;42.100;25.222;2022-08-19T05:55:19;99624.53;;;27.33;88.50
8641;BME280;4358;42.100;25.222;2022-08-19T05:57:48;99619.63;;;27.48;88.88
8641;BME280;4358;42.100;25.222;2022-08-19T06:00:15;99637.16;;;27.65;86.56
8641;BME280;4358;42.100;25.222;2022-08-19T06:02:42;99629.75;;;27.79;86.13
8641;BME280;4358;42.100;25.222;2022-08-19T06:05:10;99639.00;;;28.03;85.11
8641;BME280;4358;42.100;25.222;2022-08-19T06:07:37;99642.66;;;28.21;83.81
8641;BME280;4358;42.100;25.222;2022-08-19T06:10:08;99647.88;;;28.48;83.01
8641;BME280;4358;42.100;25.222;2022-08-19T06:12:36;99647.22;;;28.71;81.70
8641;BME280;4358;42.100;25.222;2022-08-19T06:15:06;99649.41;;;28.87;80.30
8641;BME280;4358;42.100;25.222;2022-08-19T06:17:33;99643.47;;;29.08;78.95
8641;BME280;4358;42.100;25.222;2022-08-19T06:20:01;99647.84;;;29.27;78.01
8641;BME280;4358;42.100;25.222;2022-08-19T06:22:28;99643.53;;;29.38;77.61
8641;BME280;4358;42.100;25.222;2022-08-19T06:24:55;99646.06;;;29.39;77.29
8641;BME280;4358;42.100;25.222;2022-08-19T06:27:24;99653.41;;;29.39;77.62
8641;BME280;4358;42.100;25.222;2022-08-19T06:29:51;99648.38;;;29.54;76.75
8641;BME280;4358;42.100;25.222;2022-08-19T06:32:18;99652.69;;;29.62;76.03
8641;BME280;4358;42.100;25.222;2022-08-19T06:34:45;99653.31;;;29.75;75.35
8641;BME280;4358;42.100;25.222;2022-08-19T06:37:13;99647.16;;;29.80;74.75
8641;BME280;4358;42.100;25.222;2022-08-19T06:39:41;99650.81;;;29.92;74.37
8641;BME280;4358;42.100;25.222;2022-08-19T06:42:11;99652.00;;;29.96;73.16
8641;BME280;4358;42.100;25.222;2022-08-19T06:44:44;99646.94;;;30.23;71.97
8641;BME280;4358;42.100;25.222;2022-08-19T06:47:13;99644.91;;;30.30;72.00
8641;BME280;4358;42.100;25.222;2022-08-19T06:49:41;99656.38;;;30.62;70.59
8641;BME280;4358;42.100;25.222;2022-08-19T06:52:09;99653.28;;;30.70;69.78
8641;BME280;4358;42.100;25.222;2022-08-19T06:54:37;99662.34;;;30.70;68.58
8641;BME280;4358;42.100;25.222;2022-08-19T06:57:05;99652.44;;;30.81;69.18
8641;BME280;4358;42.100;25.222;2022-08-19T06:59:34;99647.91;;;30.98;67.48
8641;BME280;4358;42.100;25.222;2022-08-19T07:02:05;99656.47;;;31.02;66.74
8641;BME280;4358;42.100;25.222;2022-08-19T07:04:33;99664.19;;;31.17;66.70
8641;BME280;4358;42.100;25.222;2022-08-19T07:07:03;99641.09;;;31.12;65.63
8641;BME280;4358;42.100;25.222;2022-08-19T07:09:31;99639.63;;;31.22;65.53
8641;BME280;4358;42.100;25.222;2022-08-19T07:11:58;99659.34;;;31.47;64.59
8641;BME280;4358;42.100;25.222;2022-08-19T07:14:26;99649.19;;;31.59;63.85
8641;BME280;4358;42.100;25.222;2022-08-19T07:16:55;99650.16;;;31.81;63.52
8641;BME280;4358;42.100;25.222;2022-08-19T07:19:25;99644.22;;;31.73;62.55
8641;BME280;4358;42.100;25.222;2022-08-19T07:21:54;99648.34;;;31.87;61.23
8641;BME280;4358;42.100;25.222;2022-08-19T07:24:22;99649.69;;;32.01;60.69
8641;BME280;4358;42.100;25.222;2022-08-19T07:26:51;99643.88;;;32.31;60.14
8641;BME280;4358;42.100;25.222;2022-08-19T07:29:20;99643.56;;;32.27;57.28
8641;BME280;4358;42.100;25.222;2022-08-19T07:31:49;99640.06;;;32.32;57.41
8641;BME280;4358;42.100;25.222;2022-08-19T07:34:17;99642.44;;;32.45;56.65
8641;BME280;4358;42.100;25.222;2022-08-19T07:36:46;99640.28;;;32.64;56.77
8641;BME280;4358;42.100;25.222;2022-08-19T07:39:15;99629.47;;;32.57;52.86
8641;BME280;4358;42.100;25.222;2022-08-19T07:41:43;99633.13;;;32.63;51.52
8641;BME280;4358;42.100;25.222;2022-08-19T07:44:11;99640.63;;;32.67;53.14
8641;BME280;4358;42.100;25.222;2022-08-19T07:46:40;99642.06;;;32.70;53.29
8641;BME280;4358;42.100;25.222;2022-08-19T07:49:09;99639.22;;;32.65;50.83
8641;BME280;4358;42.100;25.222;2022-08-19T07:51:47;99642.97;;;32.42;50.77
8641;BME280;4358;42.100;25.222;2022-08-19T07:54:15;99634.88;;;32.52;50.74
8641;BME280;4358;42.100;25.222;2022-08-19T07:56:42;99631.38;;;32.73;50.72
8641;BME280;4358;42.100;25.222;2022-08-19T07:59:09;99624.81;;;32.74;50.67
8641;BME280;4358;42.100;25.222;2022-08-19T08:01:38;99627.69;;;32.85;51.03
8641;BME280;4358;42.100;25.222;2022-08-19T08:04:06;99616.81;;;32.95;50.87
8641;BME280;4358;42.100;25.222;2022-08-19T08:06:52;99629.25;;;33.19;50.72
8641;BME280;4358;42.100;25.222;2022-08-19T08:09:40;99630.50;;;33.55;50.17
8641;BME280;4358;42.100;25.222;2022-08-19T08:12:09;99626.19;;;33.64;48.68
8641;BME280;4358;42.100;25.222;2022-08-19T08:14:39;99623.06;;;33.55;48.29
8641;BME280;4358;42.100;25.222;2022-08-19T08:17:07;99624.72;;;33.56;47.09
8641;BME280;4358;42.100;25.222;2022-08-19T08:19:34;99628.16;;;33.20;49.08
8641;BME280;4358;42.100;25.222;2022-08-19T08:22:03;99631.38;;;33.34;49.18
8641;BME280;4358;42.100;25.222;2022-08-19T08:24:32;99618.81;;;33.43;48.62
8641;BME280;4358;42.100;25.222;2022-08-19T08:27:00;99617.59;;;33.60;48.79
8641;BME280;4358;42.100;25.222;2022-08-19T08:29:30;99613.41;;;33.75;48.89
8641;BME280;4358;42.100;25.222;2022-08-19T08:31:58;99620.72;;;33.91;48.25
8641;BME280;4358;42.100;25.222;2022-08-19T08:34:26;99620.81;;;34.01;46.90
8641;BME280;4358;42.100;25.222;2022-08-19T08:36:53;99616.28;;;33.90;47.64
8641;BME280;4358;42.100;25.222;2022-08-19T08:39:21;99617.03;;;34.12;47.51
8641;BME280;4358;42.100;25.222;2022-08-19T08:41:52;99614.09;;;33.92;47.02
8641;BME280;4358;42.100;25.222;2022-08-19T08:44:22;99608.75;;;34.07;47.49
8641;BME280;4358;42.100;25.222;2022-08-19T08:46:53;99606.72;;;34.29;46.72
8641;BME280;4358;42.100;25.222;2022-08-19T08:49:32;99608.16;;;34.74;45.69
8641;BME280;4358;42.100;25.222;2022-08-19T08:52:05;99610.50;;;35.12;45.11
8641;BME280;4358;42.100;25.222;2022-08-19T08:54:38;99612.69;;;35.00;44.05
8641;BME280;4358;42.100;25.222;2022-08-19T08:57:11;99605.56;;;35.09;43.38
8641;BME280;4358;42.100;25.222;2022-08-19T08:59:40;99605.78;;;35.03;42.64
8641;BME280;4358;42.100;25.222;2022-08-19T09:02:08;99605.66;;;35.35;41.83
8641;BME280;4358;42.100;25.222;2022-08-19T09:04:36;99595.25;;;35.62;41.39
8641;BME280;4358;42.100;25.222;2022-08-19T09:07:26;99594.19;;;35.78;40.38
8641;BME280;4358;42.100;25.222;2022-08-19T09:10:05;99596.38;;;36.01;39.81
8641;BME280;4358;42.100;25.222;2022-08-19T09:12:39;99595.28;;;36.13;39.57
8641;BME280;4358;42.100;25.222;2022-08-19T09:15:14;99589.53;;;36.14;39.27
8641;BME280;4358;42.100;25.222;2022-08-19T09:17:43;99593.13;;;36.20;39.65
8641;BME280;4358;42.100;25.222;2022-08-19T09:20:18;99582.06;;;36.20;38.75
8641;BME280;4358;42.100;25.222;2022-08-19T09:22:45;99580.66;;;36.22;39.27
8641;BME280;4358;42.100;25.222;2022-08-19T09:25:17;99580.94;;;36.36;39.64
8641;BME280;4358;42.100;25.222;2022-08-19T09:27:47;99577.59;;;36.44;39.26
8641;BME280;4358;42.100;25.222;2022-08-19T09:30:16;99578.41;;;36.55;39.88
8641;BME280;4358;42.100;25.222;2022-08-19T09:32:44;99581.13;;;36.75;39.07
8641;BME280;4358;42.100;25.222;2022-08-19T09:35:12;99568.75;;;36.62;37.88
8641;BME280;4358;42.100;25.222;2022-08-19T09:37:40;99570.41;;;36.63;38.47
8641;BME280;4358;42.100;25.222;2022-08-19T09:40:09;99569.44;;;36.93;38.06
8641;BME280;4358;42.100;25.222;2022-08-19T09:42:37;99574.00;;;37.28;38.48
8641;BME280;4358;42.100;25.222;2022-08-19T09:45:06;99555.66;;;37.42;36.83
8641;BME280;4358;42.100;25.222;2022-08-19T09:47:33;99561.41;;;37.56;36.70
8641;BME280;4358;42.100;25.222;2022-08-19T09:50:01;99562.25;;;37.56;36.92
8641;BME280;4358;42.100;25.222;2022-08-19T09:52:28;99550.66;;;37.44;36.54
8641;BME280;4358;42.100;25.222;2022-08-19T09:54:55;99550.56;;;37.59;35.98
8641;BME280;4358;42.100;25.222;2022-08-19T09:57:22;99542.41;;;37.78;35.71
8641;BME280;4358;42.100;25.222;2022-08-19T09:59:50;99542.59;;;37.87;35.91
8641;BME280;4358;42.100;25.222;2022-08-19T10:02:18;99544.22;;;37.93;35.74
8641;BME280;4358;42.100;25.222;2022-08-19T10:04:46;99545.03;;;37.93;35.33
8641;BME280;4358;42.100;25.222;2022-08-19T10:07:30;99533.78;;;37.80;35.27
8641;BME280;4358;42.100;25.222;2022-08-19T10:09:57;99540.75;;;37.77;35.25
8641;BME280;4358;42.100;25.222;2022-08-19T10:12:24;99539.78;;;37.63;34.93
8641;BME280;4358;42.100;25.222;2022-08-19T10:14:52;99528.44;;;37.93;34.59
8641;BME280;4358;42.100;25.222;2022-08-19T10:17:20;99523.94;;;37.97;34.20
8641;BME280;4358;42.100;25.222;2022-08-19T10:19:47;99521.78;;;38.23;33.88
8641;BME280;4358;42.100;25.222;2022-08-19T10:22:14;99521.22;;;38.26;34.28
8641;BME280;4358;42.100;25.222;2022-08-19T10:24:41;99519.13;;;38.13;32.58
8641;BME280;4358;42.100;25.222;2022-08-19T10:27:08;99509.03;;;38.22;32.36
8641;BME280;4358;42.100;25.222;2022-08-19T10:29:35;99516.63;;;38.40;33.21
8641;BME280;4358;42.100;25.222;2022-08-19T10:32:05;99506.50;;;38.54;32.54
8641;BME280;4358;42.100;25.222;2022-08-19T10:34:34;99506.84;;;38.72;32.41
8641;BME280;4358;42.100;25.222;2022-08-19T10:37:02;99505.78;;;38.68;31.04
8641;BME280;4358;42.100;25.222;2022-08-19T10:39:31;99511.56;;;38.47;31.10
8641;BME280;4358;42.100;25.222;2022-08-19T10:41:58;99506.72;;;38.58;31.87
8641;BME280;4358;42.100;25.222;2022-08-19T10:44:25;99505.44;;;38.50;30.86
8641;BME280;4358;42.100;25.222;2022-08-19T10:46:55;99505.91;;;38.05;31.80
8641;BME280;4358;42.100;25.222;2022-08-19T10:49:23;99505.22;;;37.55;32.80
8641;BME280;4358;42.100;25.222;2022-08-19T10:51:50;99500.28;;;37.47;32.47
8641;BME280;4358;42.100;25.222;2022-08-19T10:54:34;99496.13;;;37.84;33.07
8641;BME280;4358;42.100;25.222;2022-08-19T10:57:19;99489.28;;;38.05;32.56
8641;BME280;4358;42.100;25.222;2022-08-19T10:59:49;99494.91;;;37.90;32.47
8641;BME280;4358;42.100;25.222;2022-08-19T11:02:16;99484.38;;;37.92;32.75
8641;BME280;4358;42.100;25.222;2022-08-19T11:04:44;99484.06;;;37.98;32.56
8641;BME280;4358;42.100;25.222;2022-08-19T11:07:11;99479.53;;;38.36;32.13
8641;BME280;4358;42.100;25.222;2022-08-19T11:09:40;99481.69;;;38.63;31.52
8641;BME280;4358;42.100;25.222;2022-08-19T11:12:08;99480.63;;;38.83;31.28
8641;BME280;4358;42.100;25.222;2022-08-19T11:14:36;99477.41;;;38.94;31.16
8641;BME280;4358;42.100;25.222;2022-08-19T11:17:04;99484.31;;;39.16;31.15
8641;BME280;4358;42.100;25.222;2022-08-19T11:19:33;99481.78;;;39.38;30.74
8641;BME280;4358;42.100;25.222;2022-08-19T11:22:02;99476.22;;;39.57;30.37
8641;BME280;4358;42.100;25.222;2022-08-19T11:24:29;99467.28;;;39.60;29.85
8641;BME280;4358;42.100;25.222;2022-08-19T11:27:02;99473.69;;;39.74;29.87
8641;BME280;4358;42.100;25.222;2022-08-19T11:29:30;99475.81;;;39.82;29.34
8641;BME280;4358;42.100;25.222;2022-08-19T11:31:58;99468.38;;;39.77;28.65
8641;BME280;4358;42.100;25.222;2022-08-19T11:34:27;99467.50;;;39.26;29.20
8641;BME280;4358;42.100;25.222;2022-08-19T11:36:55;99465.72;;;39.16;30.14
8641;BME280;4358;42.100;25.222;2022-08-19T11:39:26;99461.94;;;39.26;30.30
8641;BME280;4358;42.100;25.222;2022-08-19T11:41:53;99461.44;;;39.43;29.72
8641;BME280;4358;42.100;25.222;2022-08-19T11:44:20;99462.38;;;39.70;29.64
8641;BME280;4358;42.100;25.222;2022-08-19T11:46:48;99461.00;;;40.00;29.17
8641;BME280;4358;42.100;25.222;2022-08-19T11:49:17;99454.75;;;39.76;29.27
8641;BME280;4358;42.100;25.222;2022-08-19T11:51:46;99454.41;;;39.96;29.20
8641;BME280;4358;42.100;25.222;2022-08-19T11:54:15;99450.31;;;39.94;29.05
8641;BME280;4358;42.100;25.222;2022-08-19T11:56:44;99449.34;;;39.52;29.27
8641;BME280;4358;42.100;25.222;2022-08-19T11:59:13;99447.78;;;39.27;29.40
8641;BME280;4358;42.100;25.222;2022-08-19T12:01:40;99440.06;;;39.24;29.89
8641;BME280;4358;42.100;25.222;2022-08-19T12:04:07;99442.00;;;39.43;29.45
8641;BME280;4358;42.100;25.222;2022-08-19T12:06:37;99447.19;;;39.49;29.40
8641;BME280;4358;42.100;25.222;2022-08-19T12:09:06;99433.13;;;39.59;29.44
8641;BME280;4358;42.100;25.222;2022-08-19T12:11:34;99434.22;;;39.77;28.96
8641;BME280;4358;42.100;25.222;2022-08-19T12:14:03;99431.56;;;39.86;29.70
8641;BME280;4358;42.100;25.222;2022-08-19T12:16:31;99429.50;;;39.91;29.66
8641;BME280;4358;42.100;25.222;2022-08-19T12:18:59;99427.56;;;40.05;29.02
8641;BME280;4358;42.100;25.222;2022-08-19T12:21:30;99427.44;;;40.10;28.95
8641;BME280;4358;42.100;25.222;2022-08-19T12:23:59;99424.78;;;40.05;29.09
8641;BME280;4358;42.100;25.222;2022-08-19T12:26:28;99420.28;;;40.23;29.33
8641;BME280;4358;42.100;25.222;2022-08-19T12:28:56;99420.44;;;39.99;29.00
8641;BME280;4358;42.100;25.222;2022-08-19T12:31:26;99422.28;;;39.90;29.15
8641;BME280;4358;42.100;25.222;2022-08-19T12:33:53;99423.75;;;39.88;29.26
8641;BME280;4358;42.100;25.222;2022-08-19T12:36:20;99424.16;;;39.81;29.35
8641;BME280;4358;42.100;25.222;2022-08-19T12:38:48;99419.63;;;39.85;28.99
8641;BME280;4358;42.100;25.222;2022-08-19T12:41:16;99412.00;;;39.77;29.26
8641;BME280;4358;42.100;25.222;2022-08-19T12:43:44;99402.22;;;39.79;29.35
8641;BME280;4358;42.100;25.222;2022-08-19T12:46:11;99416.34;;;39.83;29.37
8641;BME280;4358;42.100;25.222;2022-08-19T12:48:41;99403.56;;;39.82;29.54
8641;BME280;4358;42.100;25.222;2022-08-19T12:51:12;99406.66;;;39.94;28.96
8641;BME280;4358;42.100;25.222;2022-08-19T12:53:39;99405.34;;;39.73;28.64
8641;BME280;4358;42.100;25.222;2022-08-19T12:56:07;99405.06;;;38.91;29.91
8641;BME280;4358;42.100;25.222;2022-08-19T12:58:35;99403.09;;;38.73;30.41
8641;BME280;4358;42.100;25.222;2022-08-19T13:01:06;99406.66;;;38.54;30.39
8641;BME280;4358;42.100;25.222;2022-08-19T13:03:34;99395.03;;;38.52;30.72
8641;BME280;4358;42.100;25.222;2022-08-19T13:06:02;99399.94;;;38.61;30.19
8641;BME280;4358;42.100;25.222;2022-08-19T13:08:29;99387.66;;;38.67;30.18
8641;BME280;4358;42.100;25.222;2022-08-19T13:10:56;99394.72;;;38.78;30.03
8641;BME280;4358;42.100;25.222;2022-08-19T13:13:23;99391.53;;;38.66;30.44
8641;BME280;4358;42.100;25.222;2022-08-19T13:15:51;99392.75;;;38.97;29.93